Time;durP1;ratioP1;P1;durP2;ratioP2;P2;SDS_P1;SDS_P2;PMS_P1;PMS_P2;Temp;Humidity;BMP_temperature;BMP_pressure;BME280_temperature;BME280_humidity;BME280_pressure;Samples;Min_cycle;Max_cycle;Signal;HPM_P1;HPM_P2
2023/09/12 00:01:06;;;;;;;8.65;6.45;;;23.70;61.40;;;;;;5014039;28;20224;-85
2023/09/12 00:03:33;;;;;;;7.38;5.93;;;23.60;61.30;;;;;;5014326;28;20197;-85
2023/09/12 00:06:00;;;;;;;7.25;6.40;;;23.60;61.30;;;;;;5013899;28;20617;-85
2023/09/12 00:08:28;;;;;;;6.47;5.88;;;23.60;61.40;;;;;;4998340;28;20303;-85
2023/09/12 00:11:02;;;;;;;7.35;6.50;;;23.60;61.40;;;;;;5013822;28;20216;-85
2023/09/12 00:13:29;;;;;;;6.35;5.75;;;23.60;61.40;;;;;;5013706;28;20258;-85
2023/09/12 00:15:57;;;;;;;6.70;6.10;;;23.60;61.30;;;;;;5014205;28;20216;-85
2023/09/12 00:18:24;;;;;;;7.30;6.32;;;23.60;61.40;;;;;;5014027;28;20200;-85
2023/09/12 00:20:51;;;;;;;8.00;6.50;;;23.60;61.30;;;;;;5013763;28;20706;-85
2023/09/12 00:23:19;;;;;;;8.48;6.22;;;23.60;61.30;;;;;;5013488;28;20288;-85
2023/09/12 00:25:46;;;;;;;7.80;6.28;;;23.50;61.20;;;;;;5013837;28;20196;-85
2023/09/12 00:28:13;;;;;;;8.30;6.72;;;23.60;61.30;;;;;;5013658;28;20258;-85
2023/09/12 00:30:40;;;;;;;7.38;6.40;;;23.50;62.10;;;;;;5014398;28;20222;-85
2023/09/12 00:33:08;;;;;;;7.82;6.38;;;23.50;61.30;;;;;;5015787;28;20189;-85
2023/09/12 00:35:36;;;;;;;7.28;6.50;;;23.50;61.40;;;;;;5014015;28;20216;-85
2023/09/12 00:38:04;;;;;;;7.45;6.75;;;23.50;61.40;;;;;;5014164;28;20192;-85
2023/09/12 00:40:31;;;;;;;6.72;6.13;;;23.50;61.40;;;;;;5014157;28;20229;-85
2023/09/12 00:42:57;;;;;;;8.20;6.78;;;23.50;61.40;;;;;;5014029;28;20192;-85
2023/09/12 00:45:25;;;;;;;7.97;6.28;;;23.50;61.40;;;;;;5013678;28;20201;-85
2023/09/12 00:47:52;;;;;;;7.00;6.30;;;23.40;61.40;;;;;;4997275;28;20207;-85
2023/09/12 00:50:21;;;;;;;8.55;6.43;;;23.50;61.50;;;;;;5036593;23;20224;-53
2023/09/12 00:52:48;;;;;;;10.23;6.22;;;23.50;61.50;;;;;;5031634;28;20195;-53
2023/09/12 00:55:14;;;;;;;7.68;6.65;;;23.50;61.40;;;;;;5032797;28;20382;-53
2023/09/12 00:57:41;;;;;;;8.10;6.85;;;23.40;61.30;;;;;;5031505;28;20216;-53
2023/09/12 01:00:12;;;;;;;7.20;6.50;;;23.40;61.30;;;;;;5031842;28;20676;-53
2023/09/12 01:02:40;;;;;;;7.35;6.63;;;23.40;61.40;;;;;;5032975;28;20192;-53
2023/09/12 01:05:07;;;;;;;7.57;6.65;;;23.40;61.40;;;;;;5036796;28;20668;-53
2023/09/12 01:07:35;;;;;;;7.75;6.30;;;23.40;61.40;;;;;;5037013;28;20212;-53
2023/09/12 01:10:03;;;;;;;7.35;6.25;;;23.40;61.50;;;;;;5035476;28;20203;-53
2023/09/12 01:12:31;;;;;;;7.03;6.30;;;23.40;61.30;;;;;;5037123;28;20263;-53
2023/09/12 01:14:59;;;;;;;7.72;6.88;;;23.40;61.40;;;;;;5035364;28;20757;-53
2023/09/12 01:17:26;;;;;;;7.50;6.70;;;23.40;61.40;;;;;;5035393;28;20227;-53
2023/09/12 01:19:53;;;;;;;7.15;6.32;;;23.40;61.40;;;;;;5035314;28;20228;-53
2023/09/12 01:22:35;;;;;;;8.13;6.25;;;23.30;61.40;;;;;;5036538;28;20262;-53
2023/09/12 01:25:31;;;;;;;7.28;6.50;;;23.40;61.50;;;;;;5035339;28;20188;-53
2023/09/12 01:28:00;;;;;;;7.80;7.07;;;23.30;61.50;;;;;;5036765;28;20223;-53
2023/09/12 01:30:27;;;;;;;7.35;6.47;;;23.30;61.40;;;;;;5035192;28;20581;-53
2023/09/12 01:32:55;;;;;;;8.30;6.53;;;23.30;61.40;;;;;;5035562;28;20222;-53
2023/09/12 01:35:22;;;;;;;7.57;6.43;;;23.30;61.40;;;;;;5036363;28;20208;-53
2023/09/12 01:37:49;;;;;;;7.13;6.40;;;23.30;61.30;;;;;;5036342;28;20204;-53
2023/09/12 01:40:17;;;;;;;7.55;6.43;;;23.30;61.40;;;;;;5036204;28;20188;-53
2023/09/12 01:42:46;;;;;;;7.15;6.45;;;23.30;61.40;;;;;;5034847;28;20231;-52
2023/09/12 01:45:15;;;;;;;8.80;6.80;;;23.30;61.60;;;;;;5035210;28;20534;-53
2023/09/12 01:47:42;;;;;;;7.05;6.35;;;23.30;61.50;;;;;;5035414;28;20278;-53
2023/09/12 01:50:12;;;;;;;8.52;6.43;;;23.30;61.50;;;;;;5036254;28;20275;-52
2023/09/12 01:52:40;;;;;;;7.30;6.60;;;23.30;61.50;;;;;;5034774;28;20215;-53
2023/09/12 01:55:09;;;;;;;7.45;6.75;;;23.30;61.50;;;;;;5035882;28;20216;-53
2023/09/12 01:57:36;;;;;;;7.47;6.72;;;23.20;61.30;;;;;;5035140;28;20212;-53
2023/09/12 02:00:04;;;;;;;7.80;6.93;;;23.20;61.40;;;;;;5034527;28;20192;-53
2023/09/12 02:02:33;;;;;;;6.88;5.80;;;23.20;61.40;;;;;;5035892;28;20200;-53
2023/09/12 02:05:05;;;;;;;7.47;6.78;;;23.20;61.40;;;;;;5035740;28;20189;-53
2023/09/12 02:07:34;;;;;;;9.65;6.93;;;23.20;61.50;;;;;;5034339;28;20247;-53
2023/09/12 02:10:02;;;;;;;7.82;6.53;;;23.20;61.10;;;;;;5035704;28;20254;-53
2023/09/12 02:12:29;;;;;;;7.38;6.50;;;23.20;61.00;;;;;;5034213;28;20249;-53
2023/09/12 02:14:56;;;;;;;9.27;6.85;;;23.20;61.10;;;;;;5033726;28;20224;-53
2023/09/12 02:17:23;;;;;;;8.77;6.97;;;23.20;61.00;;;;;;5034335;28;20216;-53
2023/09/12 02:19:52;;;;;;;8.18;6.90;;;23.10;61.00;;;;;;5035674;28;20192;-53
2023/09/12 02:22:19;;;;;;;8.57;7.05;;;23.10;61.10;;;;;;5034339;28;20198;-53
2023/09/12 02:24:46;;;;;;;7.53;6.72;;;23.10;60.90;;;;;;5033974;28;20675;-53
2023/09/12 02:27:13;;;;;;;7.45;6.60;;;23.10;61.00;;;;;;5033891;28;20220;-53
2023/09/12 02:29:40;;;;;;;10.07;6.57;;;23.10;61.00;;;;;;5035378;28;20191;-53
2023/09/12 02:32:07;;;;;;;6.95;6.30;;;23.10;60.80;;;;;;5033960;28;20254;-53
2023/09/12 02:34:35;;;;;;;10.18;7.00;;;23.10;60.90;;;;;;5033903;28;20295;-53
2023/09/12 02:37:04;;;;;;;7.90;6.38;;;23.10;61.00;;;;;;5033733;28;20227;-53
2023/09/12 02:39:31;;;;;;;8.57;7.07;;;23.10;60.90;;;;;;5033866;28;20549;-53
2023/09/12 02:41:58;;;;;;;8.82;6.68;;;23.10;61.10;;;;;;5033844;28;20200;-53
2023/09/12 02:44:25;;;;;;;7.53;6.60;;;23.10;61.20;;;;;;5035330;28;20188;-53
2023/09/12 02:46:52;;;;;;;9.52;6.72;;;23.00;60.90;;;;;;5033497;28;20216;-53
2023/09/12 02:49:19;;;;;;;9.35;6.97;;;23.10;61.10;;;;;;5034828;28;20196;-53
2023/09/12 02:51:46;;;;;;;9.80;6.85;;;23.00;61.00;;;;;;5035123;28;20632;-53
2023/09/12 02:54:14;;;;;;;7.60;6.72;;;23.00;61.20;;;;;;5034790;28;20206;-53
2023/09/12 02:56:42;;;;;;;8.18;7.05;;;23.00;61.10;;;;;;5034607;28;20208;-53
2023/09/12 02:59:08;;;;;;;8.00;6.60;;;23.00;61.10;;;;;;5033706;28;20687;-53
2023/09/12 03:01:36;;;;;;;7.32;6.63;;;23.00;61.00;;;;;;5034829;28;20188;-53
2023/09/12 03:04:03;;;;;;;8.23;6.80;;;23.00;61.00;;;;;;5033232;28;20196;-53
2023/09/12 03:06:31;;;;;;;7.93;7.03;;;23.00;61.10;;;;;;5033209;28;20275;-53
2023/09/12 03:08:58;;;;;;;7.40;6.70;;;23.00;61.10;;;;;;5033241;28;20204;-53
2023/09/12 03:11:29;;;;;;;7.68;6.85;;;22.90;60.70;;;;;;5034524;28;20196;-53
2023/09/12 03:13:57;;;;;;;7.95;6.72;;;23.00;60.90;;;;;;5033224;28;20275;-53
2023/09/12 03:16:24;;;;;;;9.25;7.07;;;23.00;60.90;;;;;;5034583;28;20235;-53
2023/09/12 03:18:51;;;;;;;8.23;6.68;;;23.00;60.80;;;;;;5034246;28;20184;-53
2023/09/12 03:21:18;;;;;;;8.98;6.70;;;23.00;60.80;;;;;;5033257;28;20238;-53
2023/09/12 03:23:45;;;;;;;7.85;6.60;;;23.00;60.80;;;;;;5034252;28;20203;-53
2023/09/12 03:26:12;;;;;;;8.63;6.72;;;23.00;60.60;;;;;;5032079;28;20192;-53
2023/09/12 03:28:42;;;;;;;9.05;7.25;;;23.00;60.30;;;;;;5032849;28;20218;-53
2023/09/12 03:31:11;;;;;;;9.48;6.68;;;23.10;60.20;;;;;;5032993;28;20223;-53
2023/09/12 03:33:39;;;;;;;7.97;6.72;;;23.10;60.00;;;;;;5033242;28;20196;-53
2023/09/12 03:36:07;;;;;;;8.50;7.05;;;23.10;60.00;;;;;;5032749;28;20219;-53
2023/09/12 03:38:34;;;;;;;8.60;6.78;;;23.10;60.00;;;;;;5033510;28;20220;-53
2023/09/12 03:41:01;;;;;;;7.50;6.60;;;23.10;59.90;;;;;;5033939;28;20196;-52
2023/09/12 03:43:29;;;;;;;7.75;6.70;;;23.10;59.90;;;;;;5034202;28;20250;-53
2023/09/12 03:45:57;;;;;;;7.65;6.90;;;23.10;59.70;;;;;;5032850;28;20199;-53
2023/09/12 03:48:24;;;;;;;7.78;6.35;;;23.10;59.90;;;;;;5032431;28;20220;-53
2023/09/12 03:50:52;;;;;;;9.00;7.00;;;23.10;59.80;;;;;;5033717;28;20250;-53
2023/09/12 03:53:19;;;;;;;7.65;6.72;;;23.10;59.80;;;;;;5033682;28;20185;-53
2023/09/12 03:55:46;;;;;;;8.15;7.10;;;23.10;59.90;;;;;;5033603;28;20287;-53
2023/09/12 03:58:13;;;;;;;7.65;6.95;;;23.10;59.80;;;;;;5032333;28;20572;-53
2023/09/12 04:00:40;;;;;;;8.23;7.20;;;23.10;59.70;;;;;;5032309;28;20196;-53
2023/09/12 04:03:08;;;;;;;7.45;6.72;;;23.10;59.90;;;;;;5032555;28;20246;-53
2023/09/12 04:05:35;;;;;;;7.55;6.60;;;23.10;59.90;;;;;;5032163;28;20192;-53
2023/09/12 04:08:03;;;;;;;7.38;6.68;;;23.10;59.90;;;;;;5032097;28;20212;-53
2023/09/12 04:10:32;;;;;;;7.40;6.63;;;23.00;59.80;;;;;;5032086;28;20187;-53
2023/09/12 04:12:59;;;;;;;7.75;7.05;;;23.00;59.70;;;;;;5032135;28;20729;-53
2023/09/12 04:15:26;;;;;;;12.73;7.07;;;23.00;59.70;;;;;;5032042;28;20220;-53
2023/09/12 04:17:53;;;;;;;8.90;6.70;;;23.10;59.90;;;;;;5032655;28;20296;-53
2023/09/12 04:20:21;;;;;;;8.55;6.90;;;23.00;59.70;;;;;;5032029;28;20195;-53
2023/09/12 04:22:49;;;;;;;8.85;6.40;;;23.00;59.60;;;;;;5031850;28;20253;-53
2023/09/12 04:25:16;;;;;;;7.45;6.75;;;23.00;59.70;;;;;;5032233;28;20200;-53
2023/09/12 04:27:43;;;;;;;7.22;6.53;;;23.00;59.80;;;;;;5031882;28;20215;-53
2023/09/12 04:30:11;;;;;;;10.38;7.22;;;23.00;59.80;;;;;;5031891;28;20200;-53
2023/09/12 04:32:38;;;;;;;7.75;6.70;;;23.00;59.80;;;;;;5031921;28;20235;-53
2023/09/12 04:35:06;;;;;;;7.25;6.50;;;23.00;59.80;;;;;;5031792;28;20192;-53
2023/09/12 04:37:35;;;;;;;7.68;6.18;;;23.00;59.80;;;;;;5031795;28;20211;-53
2023/09/12 04:40:05;;;;;;;7.35;6.65;;;23.00;59.80;;;;;;5031748;28;20203;-53
2023/09/12 04:42:32;;;;;;;7.88;7.07;;;23.00;59.80;;;;;;5031753;28;20625;-53
2023/09/12 04:44:59;;;;;;;7.68;6.88;;;22.90;59.70;;;;;;5032960;28;20187;-53
2023/09/12 04:47:27;;;;;;;7.22;6.55;;;22.90;59.70;;;;;;5031602;28;20242;-53
2023/09/12 04:49:54;;;;;;;8.32;6.75;;;22.90;59.70;;;;;;5031531;28;20207;-53
2023/09/12 04:52:21;;;;;;;8.10;7.30;;;22.90;59.80;;;;;;5031563;28;20192;-53
2023/09/12 04:54:50;;;;;;;8.43;6.85;;;22.90;59.80;;;;;;5033065;28;20660;-53
2023/09/12 04:57:17;;;;;;;7.50;6.78;;;22.90;59.80;;;;;;5031480;28;20318;-53
2023/09/12 04:59:44;;;;;;;8.02;7.22;;;22.90;59.80;;;;;;5031519;28;20242;-53
2023/09/12 05:02:11;;;;;;;8.77;7.10;;;22.90;60.00;;;;;;5032876;28;20188;-51
2023/09/12 05:04:38;;;;;;;8.35;7.40;;;22.90;59.70;;;;;;5031456;28;20200;-52
2023/09/12 05:07:05;;;;;;;7.75;6.60;;;22.90;59.50;;;;;;5031405;28;20707;-52
2023/09/12 05:09:32;;;;;;;8.57;7.15;;;22.80;59.50;;;;;;5033204;28;20195;-52
2023/09/12 05:12:00;;;;;;;7.63;6.88;;;22.80;59.60;;;;;;5032939;28;20192;-51
2023/09/12 05:14:27;;;;;;;9.00;7.43;;;22.80;59.60;;;;;;5031430;28;20279;-52
2023/09/12 05:16:54;;;;;;;12.05;7.25;;;22.70;59.60;;;;;;5032669;28;20585;-51
2023/09/12 05:19:21;;;;;;;7.88;7.18;;;22.80;59.70;;;;;;5031324;28;20756;-51
2023/09/12 05:21:48;;;;;;;7.88;7.07;;;22.70;59.70;;;;;;5032903;28;20210;-52
2023/09/12 05:24:15;;;;;;;8.63;7.22;;;22.70;59.80;;;;;;5032876;28;20267;-51
2023/09/12 05:26:42;;;;;;;9.90;7.00;;;22.70;59.80;;;;;;5031824;28;20215;-52
2023/09/12 05:29:10;;;;;;;9.27;7.03;;;22.70;59.80;;;;;;5031243;28;20653;-52
2023/09/12 05:31:37;;;;;;;8.45;6.97;;;22.70;59.80;;;;;;5031195;28;20214;-51
2023/09/12 05:34:05;;;;;;;9.00;7.25;;;22.70;59.90;;;;;;5031188;28;20224;-52
2023/09/12 05:36:32;;;;;;;7.88;7.15;;;22.70;60.80;;;;;;5031182;28;20217;-52
2023/09/12 05:38:59;;;;;;;8.20;7.10;;;22.70;59.90;;;;;;5031205;28;20283;-51
2023/09/12 05:41:26;;;;;;;7.70;6.90;;;22.70;59.80;;;;;;5032368;28;20271;-52
2023/09/12 05:43:53;;;;;;;7.93;7.05;;;22.80;60.00;;;;;;5031081;28;20283;-52
2023/09/12 05:46:21;;;;;;;8.00;7.20;;;22.80;60.10;;;;;;5031105;28;20199;-52
2023/09/12 05:48:48;;;;;;;7.53;6.72;;;22.80;60.10;;;;;;5032635;28;20200;-51
2023/09/12 05:51:15;;;;;;;8.20;6.82;;;22.80;60.00;;;;;;5034804;28;20203;-52
2023/09/12 05:53:42;;;;;;;7.95;7.22;;;22.90;60.20;;;;;;5034699;28;20290;-52
2023/09/12 05:56:10;;;;;;;7.88;7.07;;;22.90;60.10;;;;;;5036181;28;20246;-52
2023/09/12 05:58:41;;;;;;;9.20;6.93;;;22.90;60.00;;;;;;5034420;28;20701;-52
2023/09/12 06:01:08;;;;;;;9.73;7.65;;;23.00;60.00;;;;;;5034778;28;20282;-51
2023/09/12 06:03:37;;;;;;;8.50;6.80;;;23.00;60.00;;;;;;5034546;28;20196;-52
2023/09/12 06:06:04;;;;;;;7.50;6.72;;;23.00;60.00;;;;;;5034412;28;20228;-52
2023/09/12 06:08:31;;;;;;;8.07;7.28;;;23.10;60.10;;;;;;5035799;28;20212;-52
2023/09/12 06:10:58;;;;;;;8.98;7.25;;;23.10;60.10;;;;;;5035587;28;20192;-51
2023/09/12 06:13:25;;;;;;;7.95;6.75;;;23.10;59.90;;;;;;5034335;28;20196;-51
2023/09/12 06:15:52;;;;;;;7.50;6.80;;;23.20;60.00;;;;;;5035426;28;20801;-52
2023/09/12 06:18:19;;;;;;;7.80;6.95;;;23.20;60.00;;;;;;5034315;28;20643;-52
2023/09/12 06:20:48;;;;;;;12.02;7.18;;;23.20;59.80;;;;;;5035478;28;20759;-52
2023/09/12 06:23:14;;;;;;;7.88;7.07;;;23.30;59.80;;;;;;5035450;28;20192;-51
2023/09/12 06:25:42;;;;;;;7.93;7.10;;;23.30;59.60;;;;;;5036114;28;20216;-52
2023/09/12 06:28:10;;;;;;;7.50;6.80;;;23.40;59.70;;;;;;5034028;28;20227;-52
2023/09/12 06:30:37;;;;;;;8.57;6.78;;;23.40;59.50;;;;;;5034615;28;20196;-52
2023/09/12 06:33:04;;;;;;;11.02;7.45;;;23.40;59.40;;;;;;5035579;28;20184;-52
2023/09/12 06:35:33;;;;;;;8.75;6.53;;;23.50;59.40;;;;;;5034080;28;20231;-52
2023/09/12 06:38:01;;;;;;;8.57;6.72;;;23.60;59.30;;;;;;5034963;28;20440;-52
2023/09/12 06:40:29;;;;;;;7.55;6.78;;;23.60;59.00;;;;;;5035191;28;20275;-52
2023/09/12 06:42:56;;;;;;;6.93;6.22;;;23.70;59.00;;;;;;5033917;28;20243;-52
2023/09/12 06:45:22;;;;;;;8.57;7.05;;;23.70;58.80;;;;;;5035243;28;20210;-51
2023/09/12 06:47:49;;;;;;;9.05;6.53;;;23.80;58.80;;;;;;5034902;28;20228;-52
2023/09/12 06:50:16;;;;;;;7.00;6.13;;;23.80;58.70;;;;;;5034857;28;20218;-52
2023/09/12 06:52:44;;;;;;;7.78;6.38;;;23.80;58.70;;;;;;5033717;28;20194;-51
2023/09/12 06:55:12;;;;;;;7.13;6.53;;;23.80;58.70;;;;;;5035073;28;20192;-52
2023/09/12 06:57:40;;;;;;;7.30;6.45;;;23.80;58.70;;;;;;5034650;28;20220;-52
2023/09/12 07:00:08;;;;;;;7.13;6.40;;;23.80;59.30;;;;;;5033768;28;20196;-51
2023/09/12 07:02:35;;;;;;;7.45;6.75;;;23.90;58.50;;;;;;5033468;28;20665;-51
2023/09/12 07:05:03;;;;;;;6.93;6.13;;;24.00;58.50;;;;;;5034953;28;20199;-52
2023/09/12 07:07:30;;;;;;;8.48;6.38;;;24.00;58.30;;;;;;5034723;28;20204;-52
2023/09/12 07:09:57;;;;;;;7.03;6.32;;;24.10;58.30;;;;;;5033710;28;20586;-51
2023/09/12 07:12:26;;;;;;;6.65;6.05;;;24.10;58.10;;;;;;5034982;28;20180;-51
2023/09/12 07:14:53;;;;;;;7.43;6.60;;;24.10;58.10;;;;;;5033115;28;20204;-52
2023/09/12 07:17:20;;;;;;;6.90;6.20;;;24.20;57.90;;;;;;5032975;28;20268;-52
2023/09/12 07:19:47;;;;;;;7.68;6.47;;;24.20;57.90;;;;;;5034627;28;20271;-51
2023/09/12 07:22:14;;;;;;;10.02;6.20;;;24.30;57.90;;;;;;5033041;28;20661;-51
2023/09/12 07:24:41;;;;;;;6.97;6.13;;;24.40;57.70;;;;;;5034816;28;20200;-52
2023/09/12 07:27:08;;;;;;;8.27;6.38;;;24.40;57.60;;;;;;5032901;28;20212;-52
2023/09/12 07:29:36;;;;;;;6.90;6.30;;;24.50;57.50;;;;;;5034765;28;20202;-51
2023/09/12 07:32:04;;;;;;;6.60;5.95;;;24.50;57.40;;;;;;5033003;28;20196;-52
2023/09/12 07:34:31;;;;;;;7.00;6.18;;;24.50;57.30;;;;;;5034322;28;20197;-51
2023/09/12 07:36:58;;;;;;;7.93;6.35;;;24.60;57.20;;;;;;5034190;28;20243;-51
2023/09/12 07:39:25;;;;;;;7.78;6.13;;;24.80;57.00;;;;;;5033957;28;20340;-52
2023/09/12 07:41:52;;;;;;;6.78;6.15;;;24.90;56.60;;;;;;5034079;28;20271;-51
2023/09/12 07:44:20;;;;;;;8.10;6.43;;;25.10;56.20;;;;;;5032887;28;20684;-52
2023/09/12 07:46:49;;;;;;;7.15;6.45;;;25.20;55.90;;;;;;5034173;28;20567;-51
2023/09/12 07:49:16;;;;;;;6.90;6.20;;;25.30;55.80;;;;;;5032475;28;20230;-52
2023/09/12 07:51:43;;;;;;;7.32;6.63;;;25.30;55.70;;;;;;5032396;28;20184;-51
2023/09/12 07:54:10;;;;;;;6.65;6.05;;;25.40;55.70;;;;;;5032478;28;20291;-52
2023/09/12 07:56:37;;;;;;;6.35;5.80;;;25.40;55.60;;;;;;5033484;28;20212;-52
2023/09/12 07:59:04;;;;;;;7.90;5.80;;;25.40;55.60;;;;;;5033506;28;20202;-52
2023/09/12 08:01:31;;;;;;;6.35;5.78;;;25.40;55.60;;;;;;5033648;28;20191;-52
2023/09/12 08:03:59;;;;;;;7.90;6.30;;;25.40;55.70;;;;;;5033434;28;20663;-51
2023/09/12 08:06:27;;;;;;;6.38;5.65;;;25.40;55.70;;;;;;5033806;28;20192;-52
2023/09/12 08:08:54;;;;;;;7.00;6.30;;;25.40;55.50;;;;;;5033633;28;20184;-52
2023/09/12 08:11:21;;;;;;;6.63;5.93;;;25.50;55.40;;;;;;5033045;28;20219;-52
2023/09/12 08:13:49;;;;;;;6.22;5.63;;;25.60;56.00;;;;;;5033612;28;20199;-53
2023/09/12 08:16:16;;;;;;;6.88;5.78;;;25.60;55.30;;;;;;5031906;28;20596;-53
2023/09/12 08:18:43;;;;;;;6.80;6.18;;;25.60;55.10;;;;;;5033220;28;20244;-53
2023/09/12 08:21:11;;;;;;;6.68;5.75;;;25.70;55.00;;;;;;5033285;28;20187;-53
2023/09/12 08:23:39;;;;;;;6.38;5.78;;;25.80;54.80;;;;;;5033272;28;20686;-53
2023/09/12 08:26:05;;;;;;;6.28;5.68;;;25.80;54.60;;;;;;5033450;28;20560;-53
2023/09/12 08:28:32;;;;;;;6.03;5.43;;;25.90;54.60;;;;;;5033239;28;20696;-53
2023/09/12 08:30:58;;;;;;;6.60;5.82;;;25.90;54.60;;;;;;5033240;28;20192;-53
2023/09/12 08:33:25;;;;;;;6.45;5.85;;;25.90;54.50;;;;;;5032146;28;20544;-53
2023/09/12 08:35:52;;;;;;;6.65;6.05;;;25.90;54.50;;;;;;5033014;28;20202;-53
2023/09/12 08:38:21;;;;;;;6.15;5.65;;;25.90;54.60;;;;;;5032784;28;20647;-52
2023/09/12 08:40:51;;;;;;;6.22;5.70;;;25.80;54.60;;;;;;5032995;28;20679;-52
2023/09/12 08:43:18;;;;;;;6.40;5.78;;;25.80;54.70;;;;;;5032850;28;20188;-53
2023/09/12 08:45:46;;;;;;;7.82;5.90;;;25.80;54.60;;;;;;5032970;28;20198;-53
2023/09/12 08:48:13;;;;;;;5.75;5.25;;;25.70;54.70;;;;;;5032907;28;20553;-53
2023/09/12 08:50:40;;;;;;;6.50;5.90;;;25.80;54.70;;;;;;5031633;28;20641;-53
2023/09/12 08:53:08;;;;;;;6.72;5.90;;;25.90;54.70;;;;;;5031863;28;20208;-53
2023/09/12 08:55:36;;;;;;;6.45;5.85;;;26.00;54.30;;;;;;5031559;28;20569;-53
2023/09/12 08:58:04;;;;;;;6.25;5.65;;;26.10;54.00;;;;;;5031395;28;20266;-53
2023/09/12 09:00:31;;;;;;;6.07;5.57;;;26.20;53.60;;;;;;5031508;28;20195;-53
2023/09/12 09:02:58;;;;;;;6.85;5.63;;;26.40;53.30;;;;;;5032740;28;20192;-53
2023/09/12 09:05:25;;;;;;;5.97;5.38;;;26.50;53.20;;;;;;5031487;28;20192;-53
2023/09/12 09:07:52;;;;;;;6.15;5.55;;;26.60;53.00;;;;;;5031312;28;20216;-53
2023/09/12 09:10:20;;;;;;;5.88;5.38;;;26.60;53.40;;;;;;5032747;28;20191;-53
2023/09/12 09:12:49;;;;;;;5.47;5.07;;;26.70;52.60;;;;;;5031408;28;20265;-53
2023/09/12 09:15:23;;;;;;;6.20;5.70;;;26.70;52.40;;;;;;5032564;28;20287;-50
2023/09/12 09:17:50;;;;;;;6.00;5.50;;;26.80;52.30;;;;;;5031149;28;20215;-53
2023/09/12 09:20:26;;;;;;;6.10;5.60;;;26.90;52.20;;;;;;5031335;28;20286;-53
2023/09/12 09:23:11;;;;;;;6.05;5.47;;;26.90;52.00;;;;;;5033187;28;20195;-54
2023/09/12 09:25:40;;;;;;;6.78;5.75;;;27.00;51.90;;;;;;5035264;28;20610;-53
2023/09/12 09:28:17;;;;;;;6.13;5.60;;;27.10;51.80;;;;;;5036748;28;20221;-53
2023/09/12 09:30:45;;;;;;;5.57;5.05;;;27.00;51.70;;;;;;5036330;28;20186;-53
2023/09/12 09:33:12;;;;;;;6.18;5.60;;;27.10;51.60;;;;;;5036347;28;20616;-53
2023/09/12 09:35:40;;;;;;;6.20;5.60;;;27.10;51.50;;;;;;5036269;28;20222;-53
2023/09/12 09:38:07;;;;;;;6.22;5.72;;;27.10;51.40;;;;;;5036097;28;20680;-53
2023/09/12 09:40:35;;;;;;;5.40;4.95;;;27.20;51.40;;;;;;5034907;28;20201;-53
2023/09/12 09:43:03;;;;;;;5.75;5.20;;;27.20;51.40;;;;;;5034865;28;20226;-53
2023/09/12 09:45:32;;;;;;;5.65;5.25;;;27.20;51.40;;;;;;5034737;28;20200;-53
2023/09/12 09:48:00;;;;;;;5.78;5.28;;;27.20;51.30;;;;;;5034689;28;20587;-52
2023/09/12 09:50:27;;;;;;;6.13;5.60;;;27.20;51.30;;;;;;5035014;28;20290;-53
2023/09/12 09:52:56;;;;;;;5.25;4.85;;;27.20;51.30;;;;;;5036013;28;20210;-53
2023/09/12 09:55:23;;;;;;;5.63;5.13;;;27.20;51.30;;;;;;5034602;28;20199;-53
2023/09/12 09:57:52;;;;;;;6.03;5.53;;;27.20;51.20;;;;;;5034440;28;20640;-52
2023/09/12 10:00:20;;;;;;;5.68;5.18;;;27.20;51.20;;;;;;5036010;28;20226;-51
2023/09/12 10:02:49;;;;;;;5.82;5.32;;;27.20;51.20;;;;;;5035801;28;20183;-53
2023/09/12 10:05:17;;;;;;;5.80;5.30;;;27.20;51.20;;;;;;5034404;28;20664;-53
2023/09/12 10:07:44;;;;;;;5.57;5.07;;;27.20;51.20;;;;;;5034582;28;20215;-53
2023/09/12 10:10:11;;;;;;;5.53;5.05;;;27.20;51.20;;;;;;5035681;28;20200;-51
2023/09/12 10:12:42;;;;;;;5.30;4.90;;;27.20;51.20;;;;;;5035555;28;20192;-51
2023/09/12 10:15:10;;;;;;;5.90;5.40;;;27.20;51.20;;;;;;5034376;28;20233;-51
2023/09/12 10:17:38;;;;;;;4.90;4.50;;;27.20;51.30;;;;;;5034468;28;20580;-51
2023/09/12 10:20:10;;;;;;;5.38;4.80;;;27.20;51.40;;;;;;5035621;28;20219;-52
2023/09/12 10:22:39;;;;;;;5.93;5.43;;;27.20;51.40;;;;;;5035753;28;20225;-51
2023/09/12 10:25:07;;;;;;;5.07;4.65;;;27.20;51.50;;;;;;5034140;28;20199;-51
2023/09/12 10:27:34;;;;;;;5.55;5.10;;;27.20;51.60;;;;;;5034480;28;20211;-51
2023/09/12 10:30:02;;;;;;;5.82;5.40;;;27.20;51.60;;;;;;5035571;28;20241;-51
2023/09/12 10:32:29;;;;;;;5.40;5.00;;;27.20;51.70;;;;;;5035364;28;20238;-53
2023/09/12 10:34:57;;;;;;;4.90;4.50;;;27.20;51.80;;;;;;5034995;28;20194;-52
2023/09/12 10:37:27;;;;;;;5.20;4.80;;;27.20;51.80;;;;;;5035271;28;20676;-51
2023/09/12 10:39:54;;;;;;;5.28;4.88;;;27.10;51.80;;;;;;5035534;28;20191;-51
2023/09/12 10:42:21;;;;;;;5.05;4.65;;;27.10;51.80;;;;;;5035149;28;20254;-52
2023/09/12 10:44:48;;;;;;;5.50;5.00;;;27.10;51.90;;;;;;5033712;28;20196;-51
2023/09/12 10:47:15;;;;;;;5.55;4.93;;;27.10;51.90;;;;;;5035177;28;20207;-51
2023/09/12 10:49:44;;;;;;;5.28;4.88;;;27.10;52.00;;;;;;5034752;28;20202;-52
2023/09/12 10:52:11;;;;;;;5.43;4.93;;;27.00;52.00;;;;;;5033871;28;20564;-51
2023/09/12 10:54:40;;;;;;;5.43;5.00;;;27.00;52.00;;;;;;5033468;28;20206;-51
2023/09/12 10:57:07;;;;;;;5.40;5.00;;;27.00;52.10;;;;;;5034867;28;20212;-51
2023/09/12 10:59:35;;;;;;;5.18;4.68;;;27.00;52.20;;;;;;5035244;28;20194;-51
2023/09/12 11:02:30;;;;;;;5.30;4.90;;;27.00;52.20;;;;;;5035545;28;20192;-51
2023/09/12 11:04:57;;;;;;;5.32;4.93;;;27.00;52.30;;;;;;5034622;28;20588;-51
2023/09/12 11:07:51;;;;;;;5.60;5.10;;;27.00;52.30;;;;;;5033197;28;20339;-51
2023/09/12 11:10:23;;;;;;;5.05;4.65;;;27.00;52.30;;;;;;4999674;28;20249;-51
2023/09/12 11:12:51;;;;;;;5.00;4.60;;;27.00;52.40;;;;;;5034790;28;20543;-51
2023/09/12 11:15:18;;;;;;;5.45;4.95;;;27.00;52.50;;;;;;5033232;28;20195;-52
2023/09/12 11:17:45;;;;;;;5.68;5.18;;;27.00;52.40;;;;;;5034240;28;20218;-51
2023/09/12 11:20:13;;;;;;;5.03;4.63;;;27.00;52.50;;;;;;5034351;28;20664;-51
2023/09/12 11:22:40;;;;;;;4.90;4.50;;;27.00;52.50;;;;;;5034628;28;20284;-51
2023/09/12 11:25:17;;;;;;;5.43;4.93;;;27.00;52.50;;;;;;5034196;28;20736;-51
2023/09/12 11:28:03;;;;;;;5.40;4.93;;;27.00;52.50;;;;;;5034291;28;20211;-51
2023/09/12 11:30:31;;;;;;;5.10;4.70;;;27.00;52.50;;;;;;5034147;28;20249;-51
2023/09/12 11:32:58;;;;;;;5.32;4.93;;;27.10;52.60;;;;;;5033215;28;20202;-51
2023/09/12 11:35:26;;;;;;;5.50;5.00;;;27.10;52.60;;;;;;5034073;28;20653;-51
2023/09/12 11:37:54;;;;;;;5.38;4.90;;;27.00;52.50;;;;;;5033860;28;20222;-51
2023/09/12 11:40:24;;;;;;;5.30;4.80;;;27.00;52.60;;;;;;5034154;28;20271;-51
2023/09/12 11:42:52;;;;;;;5.10;4.70;;;27.00;52.60;;;;;;5033839;28;20187;-51
2023/09/12 11:45:20;;;;;;;5.47;5.07;;;27.00;52.60;;;;;;5033927;28;20219;-51
2023/09/12 11:47:47;;;;;;;5.15;4.75;;;27.00;52.70;;;;;;5033448;28;20711;-51
2023/09/12 11:50:27;;;;;;;5.13;4.72;;;27.00;52.70;;;;;;5033818;28;20210;-51
2023/09/12 11:53:03;;;;;;;5.50;5.00;;;27.00;52.70;;;;;;5034101;28;20202;-51
2023/09/12 11:55:32;;;;;;;5.55;5.05;;;27.00;52.70;;;;;;5034161;28;20639;-51
2023/09/12 11:58:00;;;;;;;5.18;4.78;;;27.10;52.80;;;;;;5033477;28;20593;-51
2023/09/12 12:00:28;;;;;;;5.68;5.18;;;27.00;52.70;;;;;;5033819;28;20183;-51
2023/09/12 12:02:55;;;;;;;5.30;4.80;;;27.00;52.80;;;;;;5033578;28;20705;-50
2023/09/12 12:05:22;;;;;;;4.85;4.50;;;27.00;52.80;;;;;;5032224;28;20199;-51
2023/09/12 12:07:49;;;;;;;5.65;5.10;;;27.00;52.80;;;;;;5033404;28;20206;-51
2023/09/12 12:10:17;;;;;;;4.85;4.55;;;27.00;52.80;;;;;;5033734;28;20734;-51
2023/09/12 12:12:45;;;;;;;4.93;4.53;;;27.00;52.80;;;;;;5033377;28;20538;-52
2023/09/12 12:15:14;;;;;;;5.10;4.70;;;27.10;52.90;;;;;;5033480;28;20195;-51
2023/09/12 12:17:42;;;;;;;5.22;4.82;;;27.10;53.00;;;;;;5032098;28;20589;-51
2023/09/12 12:20:11;;;;;;;4.85;4.45;;;27.00;53.00;;;;;;5031999;28;20207;-51
2023/09/12 12:22:38;;;;;;;5.13;4.70;;;27.00;53.10;;;;;;5031927;28;20288;-52
2023/09/12 12:25:09;;;;;;;4.68;4.38;;;27.00;53.10;;;;;;5033668;28;20197;-51
2023/09/12 12:27:37;;;;;;;4.95;4.63;;;27.00;53.20;;;;;;5033231;28;20215;-51
2023/09/12 12:30:06;;;;;;;5.03;4.60;;;27.00;53.20;;;;;;5033401;28;20195;-52
2023/09/12 12:32:35;;;;;;;4.95;4.55;;;27.00;53.20;;;;;;5031828;28;20289;-52
2023/09/12 12:35:03;;;;;;;4.97;4.57;;;27.00;53.20;;;;;;5033107;28;20271;-52
2023/09/12 12:37:31;;;;;;;5.65;5.15;;;27.00;53.20;;;;;;5032969;28;20207;-52
2023/09/12 12:39:59;;;;;;;5.07;4.68;;;27.00;53.20;;;;;;5031656;28;20222;-52
2023/09/12 12:42:26;;;;;;;5.18;4.78;;;27.00;53.30;;;;;;5033042;28;20184;-51
2023/09/12 12:44:54;;;;;;;5.03;4.63;;;27.00;53.40;;;;;;5031688;28;20203;-52
2023/09/12 12:47:22;;;;;;;4.82;4.43;;;26.90;53.40;;;;;;5031600;28;20220;-51
2023/09/12 12:49:53;;;;;;;4.97;4.50;;;27.00;53.40;;;;;;5060822;23;20230;-65